Time;durP1;ratioP1;P1;durP2;ratioP2;P2;SDS_P1;SDS_P2;PMS_P1;PMS_P2;Temp;Humidity;BMP_temperature;BMP_pressure;BME280_temperature;BME280_humidity;BME280_pressure;Samples;Min_cycle;Max_cycle;Signal;HPM_P1;HPM_P2
2022/03/15 00:01:01;;;;;;;15.67;9.53;;;2.50;99.90;;;;;;5081593;28;20178;-82
2022/03/15 00:03:27;;;;;;;17.87;10.40;;;2.50;99.90;;;;;;5084576;28;20632;-81
2022/03/15 00:05:53;;;;;;;17.33;9.97;;;2.50;99.90;;;;;;5080425;28;20188;-82
2022/03/15 00:08:21;;;;;;;19.40;10.20;;;2.40;99.90;;;;;;5081505;28;20543;-81
2022/03/15 00:10:48;;;;;;;18.77;10.47;;;2.50;99.90;;;;;;5083643;28;20288;-83
2022/03/15 00:13:15;;;;;;;17.27;9.73;;;2.50;99.90;;;;;;5082981;28;20240;-80
2022/03/15 00:15:42;;;;;;;18.10;10.07;;;2.50;99.90;;;;;;5083551;28;20218;-83
2022/03/15 00:18:08;;;;;;;18.83;10.90;;;2.40;99.90;;;;;;5083121;28;20188;-80
2022/03/15 00:20:34;;;;;;;17.67;10.47;;;2.40;99.90;;;;;;5079400;28;20186;-81
2022/03/15 00:23:00;;;;;;;18.13;10.70;;;2.30;99.90;;;;;;5078005;28;20207;-79
2022/03/15 00:25:27;;;;;;;20.87;11.40;;;2.30;99.90;;;;;;5082898;28;20532;-80
2022/03/15 00:27:54;;;;;;;19.97;11.03;;;2.30;99.90;;;;;;5082646;28;20173;-79
2022/03/15 00:30:21;;;;;;;19.87;11.07;;;2.30;99.90;;;;;;5077610;28;20263;-80
2022/03/15 00:32:48;;;;;;;20.80;11.20;;;2.30;99.90;;;;;;5082163;28;20216;-81
2022/03/15 00:35:16;;;;;;;21.23;11.33;;;2.20;99.90;;;;;;5081137;28;20172;-81
2022/03/15 00:37:43;;;;;;;18.50;10.50;;;2.20;99.90;;;;;;5084092;28;20738;-81
2022/03/15 00:40:09;;;;;;;21.77;11.23;;;2.20;99.90;;;;;;5079747;28;20596;-80
2022/03/15 00:42:35;;;;;;;19.67;10.87;;;2.30;99.90;;;;;;5080640;28;20201;-80
2022/03/15 00:45:03;;;;;;;21.90;11.40;;;2.30;99.90;;;;;;5078872;28;20209;-81
2022/03/15 00:47:29;;;;;;;21.90;12.67;;;2.40;99.90;;;;;;5079527;28;20173;-81
2022/03/15 00:49:55;;;;;;;23.03;11.33;;;2.50;99.90;;;;;;5075333;28;20180;-82
2022/03/15 00:52:21;;;;;;;22.60;12.87;;;2.60;99.90;;;;;;5079437;28;20201;-82
2022/03/15 00:54:47;;;;;;;25.17;12.47;;;2.60;99.90;;;;;;5079154;28;20181;-82
2022/03/15 00:57:13;;;;;;;22.33;12.43;;;2.60;99.90;;;;;;5081377;28;20272;-82
2022/03/15 00:59:39;;;;;;;23.07;12.03;;;2.80;99.90;;;;;;5079413;28;20295;-80
2022/03/15 01:02:05;;;;;;;23.00;12.73;;;2.70;99.90;;;;;;5082746;28;20200;-83
2022/03/15 01:04:31;;;;;;;23.87;12.27;;;2.60;99.90;;;;;;5081368;28;20540;-83
2022/03/15 01:06:56;;;;;;;21.20;12.00;;;2.50;99.90;;;;;;5083476;28;20184;-81
2022/03/15 01:09:22;;;;;;;21.10;11.47;;;2.40;99.90;;;;;;5079932;28;20189;-81
2022/03/15 01:11:48;;;;;;;20.37;11.63;;;2.30;99.90;;;;;;5082258;28;20620;-81
2022/03/15 01:14:13;;;;;;;18.60;11.10;;;2.40;99.90;;;;;;5079250;28;20188;-83
2022/03/15 01:16:39;;;;;;;19.90;12.50;;;2.40;99.90;;;;;;5080375;28;20509;-81
2022/03/15 01:19:07;;;;;;;23.00;11.50;;;2.30;99.90;;;;;;5081044;28;20203;-81
2022/03/15 01:21:35;;;;;;;20.97;11.77;;;2.30;99.90;;;;;;5081303;28;20230;-80
2022/03/15 01:24:01;;;;;;;21.43;11.57;;;2.20;99.90;;;;;;5081543;28;20272;-81
2022/03/15 01:26:26;;;;;;;23.67;12.00;;;2.10;99.90;;;;;;5081627;28;20311;-81
2022/03/15 01:28:52;;;;;;;21.03;11.53;;;2.10;99.90;;;;;;5080023;28;20184;-81
2022/03/15 01:31:18;;;;;;;20.07;11.73;;;2.20;99.90;;;;;;5081088;28;20223;-81
2022/03/15 01:33:43;;;;;;;23.77;12.13;;;2.20;99.90;;;;;;5078517;28;20648;-80
2022/03/15 01:36:09;;;;;;;21.20;11.90;;;2.20;99.90;;;;;;5082271;28;20276;-83
2022/03/15 01:38:35;;;;;;;21.73;12.20;;;2.10;99.90;;;;;;5080334;28;20188;-81
2022/03/15 01:41:01;;;;;;;22.43;12.37;;;2.00;99.90;;;;;;5078999;28;20181;-83
2022/03/15 01:43:26;;;;;;;18.07;11.60;;;2.20;99.90;;;;;;5080341;28;20694;-80
2022/03/15 01:45:53;;;;;;;22.47;11.83;;;2.20;99.90;;;;;;5088988;28;20184;-83
2022/03/15 01:48:20;;;;;;;22.90;11.33;;;2.10;99.90;;;;;;5079622;28;20200;-82
2022/03/15 01:50:46;;;;;;;27.70;12.97;;;2.10;99.90;;;;;;5080061;28;20973;-83
2022/03/15 01:53:15;;;;;;;19.80;12.30;;;2.20;99.90;;;;;;5077700;28;20326;-82
2022/03/15 01:55:41;;;;;;;22.47;11.67;;;2.20;99.90;;;;;;5076931;28;20213;-83
2022/03/15 01:58:07;;;;;;;22.40;12.03;;;2.20;99.90;;;;;;5077775;28;20192;-80
2022/03/15 02:00:33;;;;;;;22.60;12.03;;;2.20;99.90;;;;;;5077860;28;20688;-82
2022/03/15 02:02:58;;;;;;;23.90;12.67;;;2.20;99.90;;;;;;5077447;28;20209;-82
2022/03/15 02:05:24;;;;;;;25.90;12.67;;;2.20;99.90;;;;;;5078772;28;20268;-82
2022/03/15 02:07:50;;;;;;;22.10;12.77;;;2.20;99.90;;;;;;5079288;28;20177;-81
2022/03/15 02:10:15;;;;;;;23.63;11.93;;;2.10;99.90;;;;;;5077594;28;20185;-84
2022/03/15 02:12:41;;;;;;;22.57;12.23;;;2.10;99.90;;;;;;5078733;28;20285;-80
2022/03/15 02:15:07;;;;;;;20.03;12.03;;;2.10;99.90;;;;;;5079138;28;20181;-81
2022/03/15 02:17:34;;;;;;;23.23;12.20;;;2.00;99.90;;;;;;5079394;28;20182;-81
2022/03/15 02:20:05;;;;;;;23.87;12.23;;;2.10;99.90;;;;;;5079138;28;20193;-82
2022/03/15 02:22:30;;;;;;;22.80;12.13;;;2.00;99.90;;;;;;5080941;28;20765;-83
2022/03/15 02:24:56;;;;;;;24.37;13.57;;;2.00;99.90;;;;;;5079751;28;20192;-81
2022/03/15 02:27:23;;;;;;;22.37;12.10;;;1.90;99.90;;;;;;5079452;28;20204;-81
2022/03/15 02:29:49;;;;;;;22.67;11.90;;;1.90;99.90;;;;;;5076020;28;20186;-81
2022/03/15 02:32:15;;;;;;;23.80;12.53;;;1.80;99.90;;;;;;5081695;28;20209;-81
2022/03/15 02:34:41;;;;;;;23.00;12.10;;;1.60;99.90;;;;;;5084190;28;20204;-81
2022/03/15 02:37:06;;;;;;;26.43;13.10;;;1.60;99.90;;;;;;5089240;28;20303;-81
2022/03/15 02:39:32;;;;;;;23.87;12.03;;;1.70;99.90;;;;;;5087536;28;20192;-81
2022/03/15 02:41:58;;;;;;;20.87;12.13;;;1.70;99.90;;;;;;5081766;28;20247;-81
2022/03/15 02:44:23;;;;;;;23.33;12.93;;;1.70;99.90;;;;;;5085034;28;20225;-84
2022/03/15 02:46:50;;;;;;;24.50;12.63;;;1.70;99.90;;;;;;5082677;28;20186;-81
2022/03/15 02:49:16;;;;;;;22.87;12.70;;;1.80;99.90;;;;;;5083285;28;20253;-84
2022/03/15 02:51:42;;;;;;;24.67;13.27;;;1.90;99.90;;;;;;5083732;28;20300;-80
2022/03/15 02:54:11;;;;;;;24.13;12.83;;;1.90;99.90;;;;;;5078666;28;20189;-82
2022/03/15 02:56:42;;;;;;;23.47;13.60;;;1.90;99.90;;;;;;5078995;28;20170;-81
2022/03/15 02:59:12;;;;;;;29.43;13.67;;;1.80;99.90;;;;;;5080196;28;20180;-80
2022/03/15 03:01:37;;;;;;;26.80;14.00;;;1.80;99.90;;;;;;5079981;28;20185;-81
2022/03/15 03:04:03;;;;;;;25.57;13.70;;;1.80;99.90;;;;;;5081148;28;20204;-82
2022/03/15 03:06:28;;;;;;;26.07;13.40;;;1.90;99.90;;;;;;5081974;28;20646;-79
2022/03/15 03:08:54;;;;;;;21.20;12.83;;;2.00;99.90;;;;;;5078934;28;20188;-81
2022/03/15 03:11:20;;;;;;;25.80;13.27;;;1.90;99.90;;;;;;5078846;28;20654;-82
2022/03/15 03:13:47;;;;;;;20.13;11.97;;;1.80;99.90;;;;;;5076321;28;20753;-81
2022/03/15 03:16:13;;;;;;;21.40;11.73;;;1.70;99.90;;;;;;5079320;28;20181;-80
2022/03/15 03:18:40;;;;;;;24.43;12.97;;;1.60;99.90;;;;;;5078262;28;20280;-79
2022/03/15 03:21:06;;;;;;;22.53;12.17;;;1.50;99.90;;;;;;5076981;28;20327;-82
2022/03/15 03:23:37;;;;;;;21.60;12.03;;;1.40;99.90;;;;;;5078527;28;20209;-80
2022/03/15 03:26:04;;;;;;;23.10;12.60;;;1.40;99.90;;;;;;5078803;28;20211;-78
2022/03/15 03:28:36;;;;;;;20.23;11.87;;;1.40;99.90;;;;;;5079918;28;20231;-81
2022/03/15 03:31:07;;;;;;;23.97;12.67;;;1.40;99.90;;;;;;5079593;28;20169;-81
2022/03/15 03:33:33;;;;;;;21.57;11.97;;;1.40;99.90;;;;;;5076955;28;20295;-79
2022/03/15 03:35:59;;;;;;;21.90;12.80;;;1.40;99.90;;;;;;5077890;28;20200;-80
2022/03/15 03:38:25;;;;;;;24.23;13.23;;;1.50;99.90;;;;;;5078808;28;20264;-79
2022/03/15 03:40:51;;;;;;;19.50;11.30;;;1.50;99.90;;;;;;5078043;28;20707;-80
2022/03/15 03:43:17;;;;;;;21.30;11.20;;;1.40;99.90;;;;;;5077344;28;20274;-83
2022/03/15 03:45:43;;;;;;;21.50;11.73;;;1.50;99.90;;;;;;5079450;28;20177;-82
2022/03/15 03:48:08;;;;;;;20.70;11.67;;;1.40;99.90;;;;;;5093867;28;20176;-80
2022/03/15 03:50:35;;;;;;;22.57;12.10;;;1.30;99.90;;;;;;5078170;28;20201;-80
2022/03/15 03:53:02;;;;;;;19.20;10.93;;;1.20;99.90;;;;;;5076640;28;20297;-82
2022/03/15 03:55:28;;;;;;;20.80;11.57;;;1.20;99.90;;;;;;5094155;28;20210;-83
2022/03/15 03:57:54;;;;;;;19.80;11.13;;;1.20;99.90;;;;;;5078385;28;20181;-81
2022/03/15 04:00:20;;;;;;;22.13;11.90;;;1.20;99.90;;;;;;5078360;28;20210;-80
2022/03/15 04:02:46;;;;;;;21.47;11.77;;;1.20;99.90;;;;;;5079820;28;20581;-81
2022/03/15 04:05:12;;;;;;;20.33;11.33;;;1.20;99.90;;;;;;5077175;28;20211;-80
2022/03/15 04:07:41;;;;;;;21.63;12.67;;;1.20;99.90;;;;;;5077033;28;20230;-81
2022/03/15 04:10:08;;;;;;;23.20;12.13;;;1.20;99.90;;;;;;5077060;28;20193;-82
2022/03/15 04:12:35;;;;;;;25.57;12.60;;;1.30;99.90;;;;;;5077390;28;20247;-83
2022/03/15 04:15:01;;;;;;;24.50;14.10;;;1.40;99.90;;;;;;5078974;28;20258;-83
2022/03/15 04:17:27;;;;;;;22.83;12.73;;;1.40;99.90;;;;;;5076499;28;20184;-82
2022/03/15 04:19:53;;;;;;;27.10;12.80;;;1.60;99.90;;;;;;5076128;28;20212;-79
2022/03/15 04:22:19;;;;;;;25.77;14.00;;;1.70;99.90;;;;;;5075315;28;20234;-79
2022/03/15 04:24:45;;;;;;;26.50;13.63;;;1.80;99.90;;;;;;5076468;28;20193;-83
2022/03/15 04:27:11;;;;;;;26.80;13.40;;;1.80;99.90;;;;;;5078674;28;20185;-81
2022/03/15 04:29:37;;;;;;;28.63;14.63;;;1.90;99.90;;;;;;5078300;28;20177;-81
2022/03/15 04:32:03;;;;;;;25.07;13.13;;;2.00;99.90;;;;;;5078470;28;20205;-84
2022/03/15 04:34:30;;;;;;;24.00;13.53;;;2.00;99.90;;;;;;5077091;28;20188;-81
2022/03/15 04:36:59;;;;;;;28.20;13.20;;;2.10;99.90;;;;;;5071138;28;20205;-84
2022/03/15 04:39:25;;;;;;;29.60;14.23;;;2.20;99.90;;;;;;5076621;28;20185;-80
2022/03/15 04:41:51;;;;;;;27.40;14.60;;;2.30;99.90;;;;;;5079345;28;20210;-83
2022/03/15 04:44:17;;;;;;;26.70;14.53;;;2.40;99.90;;;;;;5078223;28;20205;-81
2022/03/15 04:46:42;;;;;;;27.53;15.00;;;2.30;99.90;;;;;;5077554;28;20275;-81
2022/03/15 04:49:08;;;;;;;28.97;14.43;;;2.40;99.90;;;;;;5079355;28;20181;-82
2022/03/15 04:51:34;;;;;;;27.50;14.00;;;2.40;99.90;;;;;;5078218;28;20264;-82
2022/03/15 04:54:00;;;;;;;28.70;14.80;;;2.50;99.90;;;;;;5075573;28;20239;-82
2022/03/15 04:56:25;;;;;;;28.50;14.07;;;2.60;99.90;;;;;;5076726;28;20193;-79
2022/03/15 04:58:51;;;;;;;30.70;13.97;;;2.60;99.90;;;;;;5077531;28;20759;-80
2022/03/15 05:01:17;;;;;;;26.97;13.67;;;2.60;99.90;;;;;;5076891;28;20193;-79
2022/03/15 05:03:42;;;;;;;27.57;14.60;;;2.60;99.90;;;;;;5076232;28;20393;-78
2022/03/15 05:06:08;;;;;;;28.37;13.67;;;2.50;99.90;;;;;;5078214;28;20188;-82
2022/03/15 05:08:34;;;;;;;30.03;14.73;;;2.40;99.90;;;;;;5078148;28;20959;-80
2022/03/15 05:11:08;;;;;;;25.47;13.20;;;2.30;99.90;;;;;;5077664;28;20318;-83
2022/03/15 05:13:40;;;;;;;24.20;13.40;;;2.30;99.90;;;;;;5076490;28;20208;-79
2022/03/15 05:16:28;;;;;;;21.30;11.77;;;2.20;99.90;;;;;;5076660;28;20197;-81
2022/03/15 05:18:54;;;;;;;24.63;13.13;;;2.00;99.90;;;;;;5076734;28;21072;-79
2022/03/15 05:21:23;;;;;;;26.33;13.43;;;2.00;99.90;;;;;;5076508;28;20219;-78
2022/03/15 05:23:50;;;;;;;23.87;13.60;;;2.00;99.90;;;;;;5076895;28;20786;-81
2022/03/15 05:26:17;;;;;;;23.37;12.97;;;1.90;99.90;;;;;;5078070;28;20272;-82
2022/03/15 05:28:43;;;;;;;23.67;12.97;;;1.80;99.90;;;;;;5076821;28;20239;-80
2022/03/15 05:31:10;;;;;;;28.03;13.37;;;1.80;99.90;;;;;;5078564;28;20195;-81
2022/03/15 05:33:35;;;;;;;24.30;12.20;;;1.80;99.90;;;;;;5074027;28;20316;-81
2022/03/15 05:36:02;;;;;;;27.17;12.03;;;1.70;99.90;;;;;;5076530;28;20755;-81
2022/03/15 05:38:28;;;;;;;28.80;13.67;;;1.70;99.90;;;;;;5077007;28;20252;-80
2022/03/15 05:40:54;;;;;;;29.03;13.83;;;1.80;99.90;;;;;;5077301;28;20277;-82
2022/03/15 05:43:21;;;;;;;26.03;12.43;;;1.90;99.90;;;;;;5079040;28;20220;-82
2022/03/15 05:45:47;;;;;;;24.67;13.77;;;1.90;99.90;;;;;;5076038;28;20183;-83
2022/03/15 05:48:12;;;;;;;27.47;13.23;;;2.00;99.90;;;;;;5077878;28;20268;-84
2022/03/15 05:50:38;;;;;;;26.73;13.60;;;2.00;99.90;;;;;;5077404;28;20599;-81
2022/03/15 05:53:05;;;;;;;25.13;13.37;;;2.00;99.90;;;;;;5076108;28;20205;-80
2022/03/15 05:55:32;;;;;;;28.83;14.33;;;2.00;99.90;;;;;;5093969;28;20181;-82
2022/03/15 05:57:58;;;;;;;28.97;13.03;;;2.00;99.90;;;;;;5075902;28;20188;-80
2022/03/15 06:00:24;;;;;;;26.00;13.60;;;2.10;99.90;;;;;;5077912;28;20188;-80
2022/03/15 06:02:50;;;;;;;29.70;14.67;;;2.20;99.90;;;;;;5077555;28;20209;-81
2022/03/15 06:05:16;;;;;;;27.97;13.33;;;2.30;99.90;;;;;;5078741;28;20673;-81
2022/03/15 06:07:50;;;;;;;27.83;13.80;;;2.30;99.90;;;;;;5079462;28;20192;-81
2022/03/15 06:10:17;;;;;;;29.43;14.37;;;2.40;99.90;;;;;;5079718;28;20180;-81
2022/03/15 06:12:44;;;;;;;29.37;13.50;;;2.40;99.90;;;;;;5080732;28;20204;-82
2022/03/15 06:15:10;;;;;;;30.60;14.07;;;2.40;99.90;;;;;;5081539;28;20207;-83
2022/03/15 06:17:52;;;;;;;27.10;13.23;;;2.50;99.90;;;;;;5080874;28;20218;-81
2022/03/15 06:20:18;;;;;;;24.47;12.20;;;2.60;99.90;;;;;;5080296;28;20196;-79
2022/03/15 06:22:46;;;;;;;27.07;14.27;;;2.70;99.90;;;;;;5081052;28;20206;-79
2022/03/15 06:25:12;;;;;;;29.17;14.23;;;2.80;99.90;;;;;;5079791;28;20193;-82
2022/03/15 06:27:37;;;;;;;24.93;12.87;;;2.90;99.90;;;;;;5080982;28;20188;-79
2022/03/15 06:30:05;;;;;;;28.27;14.13;;;3.00;99.90;;;;;;5082542;28;20671;-81
2022/03/15 06:32:32;;;;;;;29.27;13.90;;;3.10;99.90;;;;;;5080621;28;20216;-81
2022/03/15 06:34:58;;;;;;;28.70;13.33;;;3.30;99.90;;;;;;5078175;28;20662;-79
2022/03/15 06:37:25;;;;;;;23.80;12.30;;;3.40;99.90;;;;;;5080053;28;20182;-81
2022/03/15 06:39:50;;;;;;;25.23;13.13;;;3.50;99.90;;;;;;5078248;28;20246;-81
2022/03/15 06:42:17;;;;;;;25.67;13.07;;;3.60;99.90;;;;;;5080784;28;20603;-85
2022/03/15 06:44:43;;;;;;;26.97;13.50;;;3.60;99.90;;;;;;5079336;28;20270;-81
2022/03/15 06:47:10;;;;;;;24.47;13.10;;;3.80;99.90;;;;;;5081192;28;20185;-81
2022/03/15 06:49:35;;;;;;;23.73;12.90;;;3.90;99.90;;;;;;5079117;28;20264;-83
2022/03/15 06:52:02;;;;;;;24.83;12.37;;;4.00;99.90;;;;;;5078751;28;20320;-85
2022/03/15 06:54:27;;;;;;;23.70;12.60;;;4.10;99.90;;;;;;5079779;28;20659;-81
2022/03/15 06:56:53;;;;;;;27.90;13.30;;;4.20;99.90;;;;;;5077344;28;20186;-81
2022/03/15 06:59:20;;;;;;;23.67;13.30;;;4.20;99.90;;;;;;5080996;28;20213;-80
2022/03/15 07:01:46;;;;;;;23.93;12.40;;;4.30;99.90;;;;;;5080046;28;20295;-80
2022/03/15 07:04:11;;;;;;;23.37;12.73;;;4.30;99.90;;;;;;5083002;28;20654;-79
2022/03/15 07:06:37;;;;;;;22.87;11.87;;;4.40;99.90;;;;;;5082327;28;20218;-80
2022/03/15 07:09:03;;;;;;;21.13;11.60;;;4.40;99.90;;;;;;5080930;28;20182;-80
2022/03/15 07:11:29;;;;;;;23.33;12.70;;;4.50;99.90;;;;;;5080529;28;20185;-80
2022/03/15 07:13:54;;;;;;;22.63;12.07;;;4.60;99.90;;;;;;5080120;28;20220;-82
2022/03/15 07:16:20;;;;;;;22.93;12.53;;;4.70;99.90;;;;;;5078733;28;20247;-80
2022/03/15 07:18:46;;;;;;;20.97;13.10;;;4.80;99.90;;;;;;5077258;28;20185;-82
2022/03/15 07:21:12;;;;;;;21.60;12.80;;;4.90;99.90;;;;;;5077831;28;20651;-82
2022/03/15 07:23:38;;;;;;;19.83;12.77;;;5.00;99.90;;;;;;5074478;28;20251;-79
2022/03/15 07:26:03;;;;;;;23.17;12.67;;;5.10;99.90;;;;;;5076520;28;20186;-80
2022/03/15 07:28:29;;;;;;;20.87;12.97;;;5.20;99.90;;;;;;5079788;28;20247;-81
2022/03/15 07:30:55;;;;;;;22.10;13.00;;;5.20;99.90;;;;;;5077314;28;20181;-81
2022/03/15 07:33:20;;;;;;;23.33;13.17;;;5.30;99.90;;;;;;5076487;28;20208;-82
2022/03/15 07:35:46;;;;;;;21.20;13.50;;;5.50;99.90;;;;;;5078093;28;20189;-82
2022/03/15 07:38:16;;;;;;;21.00;12.20;;;5.60;99.90;;;;;;5077158;28;20223;-82
2022/03/15 07:40:43;;;;;;;19.40;11.73;;;5.70;99.90;;;;;;5077398;28;20212;-82
2022/03/15 07:43:08;;;;;;;22.40;12.83;;;5.90;99.90;;;;;;5073731;28;20213;-82
2022/03/15 07:45:34;;;;;;;20.70;11.97;;;6.10;99.90;;;;;;5070720;28;20181;-82
2022/03/15 07:48:00;;;;;;;21.13;12.40;;;6.30;99.90;;;;;;5063201;28;20211;-83
2022/03/15 07:50:25;;;;;;;24.90;13.37;;;6.40;99.90;;;;;;5062535;28;20640;-81
2022/03/15 07:52:52;;;;;;;19.03;11.87;;;6.60;99.90;;;;;;5066422;28;20217;-83
2022/03/15 07:55:20;;;;;;;23.53;13.60;;;6.70;99.90;;;;;;5078030;28;20388;-80
2022/03/15 07:57:47;;;;;;;19.43;12.20;;;6.90;99.90;;;;;;5074475;28;20254;-81
2022/03/15 08:00:13;;;;;;;21.00;11.47;;;7.10;99.90;;;;;;5071899;28;20606;-83
2022/03/15 08:02:38;;;;;;;18.50;11.60;;;7.20;99.90;;;;;;5070305;28;20304;-82
2022/03/15 08:05:04;;;;;;;20.40;11.93;;;7.30;99.90;;;;;;5064414;28;20346;-82
2022/03/15 08:07:30;;;;;;;21.70;12.67;;;7.40;99.90;;;;;;5073440;28;20185;-82
2022/03/15 08:09:56;;;;;;;19.73;11.80;;;7.40;99.90;;;;;;5071531;28;20201;-81
2022/03/15 08:12:21;;;;;;;19.70;12.20;;;7.40;99.90;;;;;;5071858;28;20216;-83
2022/03/15 08:14:48;;;;;;;22.50;12.83;;;7.40;99.90;;;;;;5077782;28;21170;-81
2022/03/15 08:17:14;;;;;;;18.77;11.90;;;7.50;99.90;;;;;;5069323;28;20186;-82
2022/03/15 08:19:39;;;;;;;21.83;13.33;;;7.50;99.90;;;;;;5070021;28;20189;-81
2022/03/15 08:22:06;;;;;;;22.97;13.03;;;7.50;99.90;;;;;;5071627;28;20205;-82
2022/03/15 08:24:32;;;;;;;21.97;12.70;;;7.60;99.90;;;;;;5067347;28;20726;-80
2022/03/15 08:26:58;;;;;;;23.77;12.90;;;7.70;99.90;;;;;;5068841;28;20273;-82
2022/03/15 08:29:23;;;;;;;23.77;13.40;;;7.70;99.90;;;;;;5073181;28;20644;-83
2022/03/15 08:31:49;;;;;;;22.23;13.43;;;7.70;99.90;;;;;;5075944;28;20219;-83
2022/03/15 08:34:14;;;;;;;19.93;13.40;;;7.80;99.90;;;;;;5065004;28;20189;-83
2022/03/15 08:36:40;;;;;;;20.50;12.40;;;8.00;99.90;;;;;;5065635;28;20186;-82
2022/03/15 08:39:06;;;;;;;19.77;12.43;;;8.20;99.90;;;;;;5070104;28;20361;-81
2022/03/15 08:41:31;;;;;;;22.17;12.90;;;8.30;99.90;;;;;;5063343;28;20189;-81
2022/03/15 08:43:57;;;;;;;22.07;13.70;;;8.50;99.90;;;;;;5070071;28;20773;-83
2022/03/15 08:46:23;;;;;;;20.67;13.20;;;8.50;99.90;;;;;;5069433;28;20189;-81
2022/03/15 08:48:48;;;;;;;22.00;13.50;;;8.70;99.90;;;;;;5065838;28;20210;-80
2022/03/15 08:51:14;;;;;;;20.50;13.87;;;8.90;99.90;;;;;;5070975;28;20373;-80
2022/03/15 08:53:40;;;;;;;21.43;14.03;;;9.00;99.90;;;;;;5067584;28;20305;-82
2022/03/15 08:56:06;;;;;;;21.83;12.70;;;9.10;99.90;;;;;;5067878;28;20274;-80
2022/03/15 08:58:31;;;;;;;18.63;12.80;;;9.30;99.90;;;;;;5070245;28;20193;-83
2022/03/15 09:00:58;;;;;;;22.20;13.57;;;9.40;99.90;;;;;;5070993;28;20645;-81
2022/03/15 09:03:24;;;;;;;20.13;13.00;;;9.50;99.90;;;;;;5068439;28;20635;-81
2022/03/15 09:05:50;;;;;;;22.10;12.93;;;9.50;99.90;;;;;;5065005;28;20255;-83
2022/03/15 09:08:15;;;;;;;21.27;13.00;;;9.60;99.90;;;;;;5067745;28;20663;-83
2022/03/15 09:10:44;;;;;;;21.20;13.07;;;9.60;99.90;;;;;;5069002;28;20570;-83
2022/03/15 09:13:10;;;;;;;22.23;13.27;;;9.80;99.90;;;;;;5069300;28;20660;-83
2022/03/15 09:15:37;;;;;;;20.50;12.83;;;10.00;99.90;;;;;;5061002;28;20185;-81
2022/03/15 09:18:03;;;;;;;21.60;14.03;;;10.10;99.90;;;;;;5062597;28;20566;-83
2022/03/15 09:20:29;;;;;;;22.30;13.70;;;10.10;99.90;;;;;;5073983;28;20181;-82
2022/03/15 09:22:55;;;;;;;22.57;13.77;;;10.20;99.90;;;;;;5065210;28;20637;-82
2022/03/15 09:25:22;;;;;;;22.40;14.17;;;10.30;99.90;;;;;;5074357;28;20189;-83
2022/03/15 09:27:48;;;;;;;19.67;13.20;;;10.50;99.90;;;;;;5074268;28;20628;-80
2022/03/15 09:30:15;;;;;;;21.77;13.77;;;10.50;99.90;;;;;;5073821;28;20181;-80
2022/03/15 09:32:40;;;;;;;20.90;14.40;;;10.70;99.90;;;;;;5075176;28;20207;-82
2022/03/15 09:35:06;;;;;;;21.17;13.73;;;10.60;99.90;;;;;;5069973;28;20186;-82
2022/03/15 09:37:33;;;;;;;23.97;16.07;;;10.70;99.90;;;;;;5072833;28;20207;-79
2022/03/15 09:39:59;;;;;;;21.63;13.63;;;10.80;99.90;;;;;;5070984;28;20191;-82
2022/03/15 09:42:27;;;;;;;22.40;13.30;;;10.70;99.90;;;;;;5067864;28;20208;-82
2022/03/15 09:44:57;;;;;;;23.20;14.10;;;10.60;99.90;;;;;;5074032;28;20223;-82
2022/03/15 09:47:29;;;;;;;23.07;13.70;;;10.70;99.90;;;;;;5071035;28;20181;-82
2022/03/15 09:49:55;;;;;;;25.80;14.73;;;10.90;99.90;;;;;;5074972;28;20253;-81
2022/03/15 09:52:21;;;;;;;20.63;13.48;;;11.10;99.90;;;;;;5072989;28;20215;-83
2022/03/15 09:54:47;;;;;;;22.67;14.63;;;11.20;99.90;;;;;;5075843;28;20214;-82
2022/03/15 09:57:13;;;;;;;21.27;13.90;;;11.20;99.90;;;;;;5073498;28;20694;-82
2022/03/15 09:59:39;;;;;;;21.63;13.57;;;11.30;99.90;;;;;;5073613;28;20185;-82
2022/03/15 10:02:05;;;;;;;23.50;14.40;;;11.20;99.90;;;;;;5073047;28;20212;-82
2022/03/15 10:04:31;;;;;;;21.20;13.87;;;11.30;99.90;;;;;;5072629;28;20185;-82
2022/03/15 10:06:57;;;;;;;22.17;14.70;;;11.30;99.90;;;;;;5073289;28;20192;-82
2022/03/15 10:09:23;;;;;;;22.13;14.40;;;11.10;99.90;;;;;;5073613;28;20185;-81
2022/03/15 10:11:50;;;;;;;21.63;14.20;;;11.10;99.90;;;;;;5074876;28;20235;-82
2022/03/15 10:14:18;;;;;;;21.70;14.60;;;11.00;99.90;;;;;;5074867;28;20188;-83
2022/03/15 10:16:45;;;;;;;20.20;13.23;;;11.20;99.90;;;;;;5073352;28;20182;-82
2022/03/15 10:19:13;;;;;;;158.50;96.00;;;11.30;99.90;;;;;;5075203;28;20532;-82
2022/03/15 10:21:45;;;;;;;25.30;17.37;;;11.50;99.90;;;;;;5073518;28;20183;-82
2022/03/15 10:24:19;;;;;;;37.87;22.27;;;11.60;99.90;;;;;;5072487;28;20263;-82
2022/03/15 10:26:50;;;;;;;30.10;16.60;;;11.40;99.90;;;;;;5072807;28;20277;-81
2022/03/15 10:29:17;;;;;;;21.50;14.87;;;11.40;99.90;;;;;;5070541;28;20231;-82
2022/03/15 10:31:44;;;;;;;21.97;13.80;;;11.40;99.90;;;;;;5091530;28;20910;-80
2022/03/15 10:34:12;;;;;;;32.10;19.97;;;11.50;99.90;;;;;;5087438;28;20197;-82
2022/03/15 10:36:43;;;;;;;26.30;17.27;;;11.60;99.90;;;;;;5073484;28;20287;-81
2022/03/15 10:39:10;;;;;;;19.90;13.37;;;11.60;99.90;;;;;;5074741;28;20177;-85
2022/03/15 10:41:50;;;;;;;24.37;17.97;;;11.60;99.90;;;;;;5076237;28;20185;-82
2022/03/15 10:44:34;;;;;;;19.50;12.53;;;11.50;99.90;;;;;;5074978;28;20204;-83
2022/03/15 10:47:05;;;;;;;18.77;12.67;;;11.60;99.90;;;;;;5075860;28;20663;-86
2022/03/15 10:49:50;;;;;;;22.80;17.67;;;11.60;99.90;;;;;;5076456;28;20184;-82
2022/03/15 10:52:31;;;;;;;19.30;13.93;;;11.60;99.90;;;;;;5077107;28;20292;-82
2022/03/15 10:55:11;;;;;;;19.57;13.70;;;11.70;99.90;;;;;;5079664;28;20177;-83
2022/03/15 10:58:06;;;;;;;20.10;12.13;;;11.80;99.90;;;;;;5080647;28;20185;-83
2022/03/15 11:00:36;;;;;;;17.27;11.37;;;11.90;99.90;;;;;;5070277;28;20194;-84
2022/03/15 11:03:07;;;;;;;17.10;11.70;;;12.10;99.90;;;;;;5082478;28;20338;-86
2022/03/15 11:05:36;;;;;;;19.58;11.93;;;12.10;99.90;;;;;;5079101;28;20182;-81
2022/03/15 11:08:13;;;;;;;16.35;10.80;;;12.20;99.90;;;;;;5080702;28;20193;-83
2022/03/15 11:10:40;;;;;;;18.50;11.15;;;12.20;99.90;;;;;;5077512;28;20243;-82
2022/03/15 11:13:11;;;;;;;17.77;11.73;;;12.30;99.90;;;;;;5074654;28;20602;-84
2022/03/15 11:16:04;;;;;;;16.70;11.63;;;12.40;99.90;;;;;;5075959;28;20181;-83
2022/03/15 11:18:34;;;;;;;17.45;10.85;;;12.40;99.90;;;;;;5075959;28;20193;-84
2022/03/15 11:21:01;;;;;;;16.67;10.70;;;12.40;99.90;;;;;;5076311;28;20187;-83
2022/03/15 11:23:31;;;;;;;16.35;11.23;;;12.50;99.90;;;;;;5074887;28;20208;-86
2022/03/15 11:26:04;;;;;;;16.73;11.60;;;12.40;99.90;;;;;;5078483;28;20818;-86
2022/03/15 11:28:32;;;;;;;17.43;11.77;;;12.40;99.90;;;;;;5080678;28;20595;-86
2022/03/15 11:30:59;;;;;;;17.73;11.47;;;12.20;99.90;;;;;;5078789;28;20738;-86
2022/03/15 11:33:27;;;;;;;19.00;11.98;;;12.10;99.90;;;;;;5079424;28;20217;-84
2022/03/15 11:35:53;;;;;;;14.30;10.30;;;12.20;99.90;;;;;;5095480;28;20188;-82
2022/03/15 11:38:19;;;;;;;17.20;11.20;;;12.30;99.90;;;;;;5075867;28;20188;-83
2022/03/15 11:40:46;;;;;;;16.70;11.35;;;12.20;99.90;;;;;;5078581;28;20212;-83
2022/03/15 11:43:34;;;;;;;17.63;10.70;;;12.30;99.90;;;;;;5079901;28;20217;-81
2022/03/15 11:46:06;;;;;;;16.73;10.55;;;12.30;99.90;;;;;;5078727;28;20200;-83
2022/03/15 11:48:41;;;;;;;17.17;11.48;;;12.20;99.90;;;;;;5080268;28;20173;-82
2022/03/15 11:51:26;;;;;;;17.53;10.83;;;12.00;99.90;;;;;;5080390;28;20906;-80
2022/03/15 11:54:19;;;;;;;19.55;11.80;;;12.10;99.90;;;;;;5077671;28;20208;-84
2022/03/15 11:56:58;;;;;;;16.70;11.23;;;12.30;99.90;;;;;;5080191;28;20176;-79
2022/03/15 11:59:24;;;;;;;18.13;12.18;;;12.40;99.90;;;;;;5078686;28;20322;-84
2022/03/15 12:02:01;;;;;;;18.73;11.82;;;12.40;99.90;;;;;;5076234;28;20680;-81
2022/03/15 12:04:29;;;;;;;18.67;11.27;;;12.40;99.90;;;;;;5074162;28;20220;-81
2022/03/15 12:07:00;;;;;;;15.02;10.43;;;12.40;99.90;;;;;;5076346;28;20638;-80
2022/03/15 12:09:30;;;;;;;16.40;10.68;;;12.30;99.90;;;;;;5075601;28;20181;-82
2022/03/15 12:12:06;;;;;;;15.57;10.45;;;12.30;99.90;;;;;;5073911;28;20217;-80
2022/03/15 12:14:45;;;;;;;15.80;10.27;;;12.40;99.90;;;;;;5078310;28;20745;-81
2022/03/15 12:17:12;;;;;;;17.13;11.02;;;12.50;99.90;;;;;;5080995;28;20177;-82
2022/03/15 12:19:50;;;;;;;15.23;10.63;;;12.50;99.90;;;;;;5095324;28;20893;-80
2022/03/15 12:22:24;;;;;;;18.23;10.93;;;12.40;99.90;;;;;;5076700;28;20201;-79
2022/03/15 12:25:01;;;;;;;18.70;10.80;;;12.50;99.90;;;;;;5078510;28;20208;-80
2022/03/15 12:27:27;;;;;;;16.50;10.87;;;12.30;99.90;;;;;;5093920;28;20209;-82
2022/03/15 12:30:00;;;;;;;17.33;10.80;;;12.30;99.90;;;;;;5078928;28;20208;-80
2022/03/15 12:32:26;;;;;;;18.40;11.55;;;12.40;99.90;;;;;;5074556;28;20198;-80
2022/03/15 12:34:57;;;;;;;15.18;10.50;;;12.30;99.90;;;;;;5074083;28;20204;-80